sensor_id;sensor_type;location;lat;lon;timestamp;pressure;altitude;pressure_sealevel;temperature;humidity
71791;BME280;59638;52.126;5.434;2024-01-10T00:00:39;103293.59;;;-4.72;75.76
71791;BME280;59638;52.126;5.434;2024-01-10T00:03:06;103296.16;;;-4.74;75.36
71791;BME280;59638;52.126;5.434;2024-01-10T00:05:32;103288.44;;;-4.74;75.87
71791;BME280;59638;52.126;5.434;2024-01-10T00:07:59;103289.22;;;-4.76;76.11
71791;BME280;59638;52.126;5.434;2024-01-10T00:10:26;103288.34;;;-4.78;76.73
71791;BME280;59638;52.126;5.434;2024-01-10T00:12:52;103289.19;;;-4.81;77.77
71791;BME280;59638;52.126;5.434;2024-01-10T00:15:19;103293.50;;;-4.78;77.55
71791;BME280;59638;52.126;5.434;2024-01-10T00:17:45;103288.41;;;-4.75;77.34
71791;BME280;59638;52.126;5.434;2024-01-10T00:20:12;103293.44;;;-4.83;78.41
71791;BME280;59638;52.126;5.434;2024-01-10T00:22:38;103291.69;;;-4.87;78.71
71791;BME280;59638;52.126;5.434;2024-01-10T00:25:05;103290.78;;;-4.89;78.85
71791;BME280;59638;52.126;5.434;2024-01-10T00:27:31;103285.59;;;-4.92;79.53
71791;BME280;59638;52.126;5.434;2024-01-10T00:29:58;103291.53;;;-4.96;80.31
71791;BME280;59638;52.126;5.434;2024-01-10T00:32:24;103280.41;;;-4.95;80.22
71791;BME280;59638;52.126;5.434;2024-01-10T00:34:51;103282.16;;;-4.94;79.92
71791;BME280;59638;52.126;5.434;2024-01-10T00:37:18;103273.50;;;-4.96;80.35
71791;BME280;59638;52.126;5.434;2024-01-10T00:39:44;103270.84;;;-5.02;80.38
71791;BME280;59638;52.126;5.434;2024-01-10T00:42:11;103274.34;;;-4.99;80.68
71791;BME280;59638;52.126;5.434;2024-01-10T00:44:37;103276.06;;;-4.99;80.53
71791;BME280;59638;52.126;5.434;2024-01-10T00:47:03;103273.44;;;-5.02;81.15
71791;BME280;59638;52.126;5.434;2024-01-10T00:49:30;103273.41;;;-5.05;82.12
71791;BME280;59638;52.126;5.434;2024-01-10T00:51:56;103271.66;;;-5.06;82.32
71791;BME280;59638;52.126;5.434;2024-01-10T00:54:23;103264.72;;;-5.10;82.78
71791;BME280;59638;52.126;5.434;2024-01-10T00:56:49;103268.22;;;-5.08;82.17
71791;BME280;59638;52.126;5.434;2024-01-10T00:59:17;103268.22;;;-5.08;82.27
71791;BME280;59638;52.126;5.434;2024-01-10T01:01:43;103262.22;;;-5.07;82.14
71791;BME280;59638;52.126;5.434;2024-01-10T01:04:10;103273.38;;;-5.08;81.66
71791;BME280;59638;52.126;5.434;2024-01-10T01:06:36;103271.59;;;-5.09;81.90
71791;BME280;59638;52.126;5.434;2024-01-10T01:09:03;103261.28;;;-5.12;82.56
71791;BME280;59638;52.126;5.434;2024-01-10T01:11:29;103266.44;;;-5.12;82.94
71791;BME280;59638;52.126;5.434;2024-01-10T01:13:56;103261.22;;;-5.15;83.10
71791;BME280;59638;52.126;5.434;2024-01-10T01:16:22;103258.63;;;-5.18;84.02
71791;BME280;59638;52.126;5.434;2024-01-10T01:18:49;103263.75;;;-5.22;85.00
71791;BME280;59638;52.126;5.434;2024-01-10T01:21:16;103256.81;;;-5.26;84.85
71791;BME280;59638;52.126;5.434;2024-01-10T01:23:42;103260.25;;;-5.25;84.71
71791;BME280;59638;52.126;5.434;2024-01-10T01:26:09;103259.38;;;-5.26;84.98
71791;BME280;59638;52.126;5.434;2024-01-10T01:28:35;103265.38;;;-5.27;85.39
71791;BME280;59638;52.126;5.434;2024-01-10T01:31:02;103249.00;;;-5.29;85.63
71791;BME280;59638;52.126;5.434;2024-01-10T01:33:29;103254.06;;;-5.35;85.87
71791;BME280;59638;52.126;5.434;2024-01-10T01:35:56;103250.59;;;-5.40;87.37
71791;BME280;59638;52.126;5.434;2024-01-10T01:38:22;103250.59;;;-5.40;87.90
71791;BME280;59638;52.126;5.434;2024-01-10T01:40:49;103259.19;;;-5.38;86.87
71791;BME280;59638;52.126;5.434;2024-01-10T01:43:19;103245.47;;;-5.37;87.25
71791;BME280;59638;52.126;5.434;2024-01-10T01:45:51;103247.09;;;-5.42;87.13
71791;BME280;59638;52.126;5.434;2024-01-10T01:48:19;103245.44;;;-5.40;86.88
71791;BME280;59638;52.126;5.434;2024-01-10T01:50:49;103235.19;;;-5.37;85.31
71791;BME280;59638;52.126;5.434;2024-01-10T01:53:16;103228.31;;;-5.38;85.48
71791;BME280;59638;52.126;5.434;2024-01-10T01:55:44;103226.59;;;-5.36;86.20
71791;BME280;59638;52.126;5.434;2024-01-10T01:58:11;103227.44;;;-5.37;86.08
71791;BME280;59638;52.126;5.434;2024-01-10T02:00:39;103232.69;;;-5.32;86.32
71791;BME280;59638;52.126;5.434;2024-01-10T02:03:07;103230.22;;;-5.25;85.46
71791;BME280;59638;52.126;5.434;2024-01-10T02:05:35;103233.66;;;-5.23;85.04
71791;BME280;59638;52.126;5.434;2024-01-10T02:08:02;103225.97;;;-5.21;85.38
71791;BME280;59638;52.126;5.434;2024-01-10T02:10:28;103230.28;;;-5.22;85.24
71791;BME280;59638;52.126;5.434;2024-01-10T02:12:55;103234.59;;;-5.19;85.58
71791;BME280;59638;52.126;5.434;2024-01-10T02:15:21;103228.47;;;-5.26;85.96
71791;BME280;59638;52.126;5.434;2024-01-10T02:17:48;103235.34;;;-5.25;86.13
71791;BME280;59638;52.126;5.434;2024-01-10T02:20:16;103221.59;;;-5.27;86.36
71791;BME280;59638;52.126;5.434;2024-01-10T02:22:44;103209.53;;;-5.31;86.05
71791;BME280;59638;52.126;5.434;2024-01-10T02:25:12;103201.72;;;-5.37;86.39
71791;BME280;59638;52.126;5.434;2024-01-10T02:27:39;103213.72;;;-5.36;87.07
71791;BME280;59638;52.126;5.434;2024-01-10T02:30:07;103210.31;;;-5.35;87.29
71791;BME280;59638;52.126;5.434;2024-01-10T02:32:35;103205.13;;;-5.38;87.20
71791;BME280;59638;52.126;5.434;2024-01-10T02:35:03;103200.03;;;-5.35;87.39
71791;BME280;59638;52.126;5.434;2024-01-10T02:37:30;103200.88;;;-5.36;87.17
71791;BME280;59638;52.126;5.434;2024-01-10T02:39:56;103195.69;;;-5.39;88.42
71791;BME280;59638;52.126;5.434;2024-01-10T02:42:23;103192.19;;;-5.44;87.77
71791;BME280;59638;52.126;5.434;2024-01-10T02:44:49;103196.44;;;-5.48;88.61
71791;BME280;59638;52.126;5.434;2024-01-10T02:47:16;103193.78;;;-5.52;89.21
71791;BME280;59638;52.126;5.434;2024-01-10T02:49:42;103198.00;;;-5.57;89.82
71791;BME280;59638;52.126;5.434;2024-01-10T02:52:09;103195.41;;;-5.57;89.48
71791;BME280;59638;52.126;5.434;2024-01-10T02:54:35;103197.16;;;-5.56;90.26
71791;BME280;59638;52.126;5.434;2024-01-10T02:57:02;103191.13;;;-5.57;89.80
71791;BME280;59638;52.126;5.434;2024-01-10T02:59:28;103194.63;;;-5.53;90.29
71791;BME280;59638;52.126;5.434;2024-01-10T03:01:55;103198.91;;;-5.54;90.27
71791;BME280;59638;52.126;5.434;2024-01-10T03:04:21;103198.88;;;-5.55;90.63
71791;BME280;59638;52.126;5.434;2024-01-10T03:06:48;103200.56;;;-5.57;90.80
71791;BME280;59638;52.126;5.434;2024-01-10T03:09:15;103194.56;;;-5.58;91.05
71791;BME280;59638;52.126;5.434;2024-01-10T03:11:41;103192.84;;;-5.59;90.95
71791;BME280;59638;52.126;5.434;2024-01-10T03:14:10;103190.19;;;-5.63;91.20
71791;BME280;59638;52.126;5.434;2024-01-10T03:16:37;103194.47;;;-5.62;91.18
71791;BME280;59638;52.126;5.434;2024-01-10T03:19:03;103185.03;;;-5.62;91.12
71791;BME280;59638;52.126;5.434;2024-01-10T03:21:30;103186.75;;;-5.62;91.19
71791;BME280;59638;52.126;5.434;2024-01-10T03:23:58;103185.91;;;-5.63;91.18
71791;BME280;59638;52.126;5.434;2024-01-10T03:26:26;103183.34;;;-5.61;91.80
71791;BME280;59638;52.126;5.434;2024-01-10T03:28:54;103178.25;;;-5.58;92.07
71791;BME280;59638;52.126;5.434;2024-01-10T03:31:20;103183.41;;;-5.58;91.28
71791;BME280;59638;52.126;5.434;2024-01-10T03:33:47;103186.75;;;-5.62;92.15
71791;BME280;59638;52.126;5.434;2024-01-10T03:36:15;103190.19;;;-5.63;92.19
71791;BME280;59638;52.126;5.434;2024-01-10T03:38:42;103186.72;;;-5.65;92.32
71791;BME280;59638;52.126;5.434;2024-01-10T03:41:16;103181.59;;;-5.65;92.98
71791;BME280;59638;52.126;5.434;2024-01-10T03:43:44;103188.44;;;-5.64;92.24
71791;BME280;59638;52.126;5.434;2024-01-10T03:46:11;103181.59;;;-5.65;93.02
71791;BME280;59638;52.126;5.434;2024-01-10T03:48:37;103179.84;;;-5.66;92.73
71791;BME280;59638;52.126;5.434;2024-01-10T03:51:08;103169.56;;;-5.66;93.09
71791;BME280;59638;52.126;5.434;2024-01-10T03:53:35;103177.28;;;-5.66;92.98
71791;BME280;59638;52.126;5.434;2024-01-10T03:56:04;103174.66;;;-5.69;93.03
71791;BME280;59638;52.126;5.434;2024-01-10T03:58:31;103172.91;;;-5.73;93.56
71791;BME280;59638;52.126;5.434;2024-01-10T04:00:57;103166.81;;;-5.77;93.50
71791;BME280;59638;52.126;5.434;2024-01-10T04:03:24;103165.09;;;-5.78;93.88
71791;BME280;59638;52.126;5.434;2024-01-10T04:05:50;103165.97;;;-5.78;94.49
71791;BME280;59638;52.126;5.434;2024-01-10T04:08:17;103165.94;;;-5.81;94.42
71791;BME280;59638;52.126;5.434;2024-01-10T04:10:44;103176.22;;;-5.81;94.64
71791;BME280;59638;52.126;5.434;2024-01-10T04:13:11;103164.16;;;-5.82;94.48
71791;BME280;59638;52.126;5.434;2024-01-10T04:15:37;103163.38;;;-5.79;94.27
71791;BME280;59638;52.126;5.434;2024-01-10T04:18:04;103158.22;;;-5.79;94.26
71791;BME280;59638;52.126;5.434;2024-01-10T04:20:31;103153.88;;;-5.82;94.45
71791;BME280;59638;52.126;5.434;2024-01-10T04:22:57;103169.28;;;-5.85;94.55
71791;BME280;59638;52.126;5.434;2024-01-10T04:25:24;103167.59;;;-5.83;94.52
71791;BME280;59638;52.126;5.434;2024-01-10T04:27:50;103168.44;;;-5.84;95.43
71791;BME280;59638;52.126;5.434;2024-01-10T04:30:17;103172.72;;;-5.83;95.54
71791;BME280;59638;52.126;5.434;2024-01-10T04:32:43;103165.00;;;-5.84;95.42
71791;BME280;59638;52.126;5.434;2024-01-10T04:35:10;103160.69;;;-5.87;95.65
71791;BME280;59638;52.126;5.434;2024-01-10T04:37:36;103164.13;;;-5.85;95.51
71791;BME280;59638;52.126;5.434;2024-01-10T04:40:04;103165.00;;;-5.84;96.17
71791;BME280;59638;52.126;5.434;2024-01-10T04:42:33;103166.72;;;-5.85;95.59
71791;BME280;59638;52.126;5.434;2024-01-10T04:45:00;103160.78;;;-5.81;95.41
71791;BME280;59638;52.126;5.434;2024-01-10T04:47:26;103151.28;;;-5.83;95.64
71791;BME280;59638;52.126;5.434;2024-01-10T04:49:53;103151.25;;;-5.86;95.12
71791;BME280;59638;52.126;5.434;2024-01-10T04:52:20;103151.25;;;-5.86;95.63
71791;BME280;59638;52.126;5.434;2024-01-10T04:54:46;103164.16;;;-5.82;95.72
71791;BME280;59638;52.126;5.434;2024-01-10T04:57:13;103159.88;;;-5.81;95.78
71791;BME280;59638;52.126;5.434;2024-01-10T04:59:39;103153.84;;;-5.85;95.42
71791;BME280;59638;52.126;5.434;2024-01-10T05:02:05;103147.00;;;-5.83;95.93
71791;BME280;59638;52.126;5.434;2024-01-10T05:04:32;103133.28;;;-5.85;95.99
71791;BME280;59638;52.126;5.434;2024-01-10T05:06:58;103138.34;;;-5.88;95.98
71791;BME280;59638;52.126;5.434;2024-01-10T05:09:25;103141.78;;;-5.89;96.08
71791;BME280;59638;52.126;5.434;2024-01-10T05:11:52;103150.41;;;-5.87;95.67
71791;BME280;59638;52.126;5.434;2024-01-10T05:14:19;103141.84;;;-5.84;95.90
71791;BME280;59638;52.126;5.434;2024-01-10T05:16:46;103143.56;;;-5.85;95.83
71791;BME280;59638;52.126;5.434;2024-01-10T05:19:14;103136.69;;;-5.86;96.53
71791;BME280;59638;52.126;5.434;2024-01-10T05:21:40;103142.72;;;-5.84;96.75
71791;BME280;59638;52.126;5.434;2024-01-10T05:24:07;103138.34;;;-5.88;96.18
71791;BME280;59638;52.126;5.434;2024-01-10T05:26:33;103140.03;;;-5.90;96.34
71791;BME280;59638;52.126;5.434;2024-01-10T05:29:00;103136.63;;;-5.92;96.35
71791;BME280;59638;52.126;5.434;2024-01-10T05:31:26;103134.91;;;-5.93;97.05
71791;BME280;59638;52.126;5.434;2024-01-10T05:33:53;103136.56;;;-5.95;96.83
71791;BME280;59638;52.126;5.434;2024-01-10T05:36:23;103139.19;;;-5.93;96.81
71791;BME280;59638;52.126;5.434;2024-01-10T05:38:50;103132.34;;;-5.88;96.70
71791;BME280;59638;52.126;5.434;2024-01-10T05:41:16;103128.06;;;-5.89;96.81
71791;BME280;59638;52.126;5.434;2024-01-10T05:43:43;103122.91;;;-5.94;97.33
71791;BME280;59638;52.126;5.434;2024-01-10T05:46:10;103122.06;;;-5.93;97.75
71791;BME280;59638;52.126;5.434;2024-01-10T05:48:37;103130.63;;;-5.89;97.15
71791;BME280;59638;52.126;5.434;2024-01-10T05:51:03;103133.22;;;-5.91;97.09
71791;BME280;59638;52.126;5.434;2024-01-10T05:53:30;103128.06;;;-5.91;97.65
71791;BME280;59638;52.126;5.434;2024-01-10T05:55:57;103125.50;;;-5.91;97.70
71791;BME280;59638;52.126;5.434;2024-01-10T05:58:23;103128.03;;;-5.94;97.56
71791;BME280;59638;52.126;5.434;2024-01-10T06:00:50;103117.78;;;-5.91;97.37
71791;BME280;59638;52.126;5.434;2024-01-10T06:03:16;103121.13;;;-5.95;97.77
71791;BME280;59638;52.126;5.434;2024-01-10T06:05:43;103120.28;;;-5.95;98.17
71791;BME280;59638;52.126;5.434;2024-01-10T06:08:10;103121.97;;;-5.97;97.70
71791;BME280;59638;52.126;5.434;2024-01-10T06:10:36;103127.13;;;-5.97;98.19
71791;BME280;59638;52.126;5.434;2024-01-10T06:13:04;103126.25;;;-5.99;97.83
71791;BME280;59638;52.126;5.434;2024-01-10T06:15:30;103126.25;;;-5.98;98.06
71791;BME280;59638;52.126;5.434;2024-01-10T06:17:57;103140.78;;;-6.00;98.17
71791;BME280;59638;52.126;5.434;2024-01-10T06:20:23;103137.28;;;-6.05;99.14
71791;BME280;59638;52.126;5.434;2024-01-10T06:22:50;103137.31;;;-6.04;99.25
71791;BME280;59638;52.126;5.434;2024-01-10T06:25:16;103138.16;;;-6.03;98.49
71791;BME280;59638;52.126;5.434;2024-01-10T06:27:43;103127.78;;;-6.09;100.00
71791;BME280;59638;52.126;5.434;2024-01-10T06:30:10;103135.34;;;-6.18;100.00
71791;BME280;59638;52.126;5.434;2024-01-10T06:32:36;103134.47;;;-6.20;100.00
71791;BME280;59638;52.126;5.434;2024-01-10T06:35:03;103124.09;;;-6.26;100.00
71791;BME280;59638;52.126;5.434;2024-01-10T06:37:31;103120.50;;;-6.35;100.00
71791;BME280;59638;52.126;5.434;2024-01-10T06:40:00;103119.53;;;-6.41;100.00
71791;BME280;59638;52.126;5.434;2024-01-10T06:42:26;103130.59;;;-6.47;100.00
71791;BME280;59638;52.126;5.434;2024-01-10T06:44:53;103133.06;;;-6.53;100.00
71791;BME280;59638;52.126;5.434;2024-01-10T06:47:20;103132.94;;;-6.59;100.00
71791;BME280;59638;52.126;5.434;2024-01-10T06:49:47;103140.56;;;-6.64;100.00
71791;BME280;59638;52.126;5.434;2024-01-10T06:52:14;103139.63;;;-6.67;100.00
71791;BME280;59638;52.126;5.434;2024-01-10T06:54:40;103133.50;;;-6.75;100.00
71791;BME280;59638;52.126;5.434;2024-01-10T06:57:07;103131.75;;;-6.78;100.00
71791;BME280;59638;52.126;5.434;2024-01-10T06:59:33;103128.25;;;-6.81;100.00
71791;BME280;59638;52.126;5.434;2024-01-10T07:02:00;103133.44;;;-6.80;100.00
71791;BME280;59638;52.126;5.434;2024-01-10T07:04:28;103134.22;;;-6.81;100.00
71791;BME280;59638;52.126;5.434;2024-01-10T07:06:54;103133.38;;;-6.81;100.00
71791;BME280;59638;52.126;5.434;2024-01-10T07:09:21;103131.66;;;-6.82;100.00
71791;BME280;59638;52.126;5.434;2024-01-10T07:11:48;103131.66;;;-6.82;100.00
71791;BME280;59638;52.126;5.434;2024-01-10T07:14:15;103135.22;;;-6.74;100.00
71791;BME280;59638;52.126;5.434;2024-01-10T07:16:42;103128.34;;;-6.75;100.00
71791;BME280;59638;52.126;5.434;2024-01-10T07:19:12;103133.50;;;-6.75;100.00
71791;BME280;59638;52.126;5.434;2024-01-10T07:21:40;103129.81;;;-6.90;100.00
71791;BME280;59638;52.126;5.434;2024-01-10T07:24:07;103131.47;;;-6.92;100.00
71791;BME280;59638;52.126;5.434;2024-01-10T07:26:38;103128.06;;;-6.91;100.00
71791;BME280;59638;52.126;5.434;2024-01-10T07:29:04;103145.16;;;-6.93;100.00
71791;BME280;59638;52.126;5.434;2024-01-10T07:31:35;103140.88;;;-6.92;100.00
71791;BME280;59638;52.126;5.434;2024-01-10T07:34:02;103140.88;;;-6.92;100.00
71791;BME280;59638;52.126;5.434;2024-01-10T07:36:32;103153.69;;;-6.94;100.00
71791;BME280;59638;52.126;5.434;2024-01-10T07:39:02;103148.66;;;-6.88;100.00
71791;BME280;59638;52.126;5.434;2024-01-10T07:41:30;103150.34;;;-6.90;100.00
71791;BME280;59638;52.126;5.434;2024-01-10T07:43:56;103155.34;;;-6.96;100.00
71791;BME280;59638;52.126;5.434;2024-01-10T07:46:23;103151.91;;;-6.98;100.00
71791;BME280;59638;52.126;5.434;2024-01-10T07:48:50;103145.31;;;-6.83;100.00
71791;BME280;59638;52.126;5.434;2024-01-10T07:51:16;103148.03;;;-6.76;100.00
71791;BME280;59638;52.126;5.434;2024-01-10T07:53:42;103150.63;;;-6.74;100.00
71791;BME280;59638;52.126;5.434;2024-01-10T07:56:10;103154.91;;;-6.75;100.00
71791;BME280;59638;52.126;5.434;2024-01-10T07:58:38;103172.94;;;-6.73;100.00
71791;BME280;59638;52.126;5.434;2024-01-10T08:01:05;103169.31;;;-6.81;100.00
71791;BME280;59638;52.126;5.434;2024-01-10T08:03:32;103175.44;;;-6.75;100.00
71791;BME280;59638;52.126;5.434;2024-01-10T08:05:59;103173.75;;;-6.74;100.00
71791;BME280;59638;52.126;5.434;2024-01-10T08:08:26;103171.16;;;-6.76;100.00
71791;BME280;59638;52.126;5.434;2024-01-10T08:10:52;103169.41;;;-6.77;100.00
71791;BME280;59638;52.126;5.434;2024-01-10T08:13:19;103161.38;;;-6.50;100.00
71791;BME280;59638;52.126;5.434;2024-01-10T08:15:45;103167.09;;;-6.16;100.00
71791;BME280;59638;52.126;5.434;2024-01-10T08:18:12;103156.00;;;-6.14;100.00
71791;BME280;59638;52.126;5.434;2024-01-10T08:20:40;103158.59;;;-6.12;100.00
71791;BME280;59638;52.126;5.434;2024-01-10T08:23:06;103160.41;;;-6.07;100.00
71791;BME280;59638;52.126;5.434;2024-01-10T08:25:34;103158.00;;;-5.94;100.00
71791;BME280;59638;52.126;5.434;2024-01-10T08:28:01;103153.84;;;-5.85;100.00
71791;BME280;59638;52.126;5.434;2024-01-10T08:30:27;103155.75;;;-5.71;100.00
71791;BME280;59638;52.126;5.434;2024-01-10T08:32:54;103148.16;;;-5.62;100.00
71791;BME280;59638;52.126;5.434;2024-01-10T08:35:20;103152.56;;;-5.55;100.00
71791;BME280;59638;52.126;5.434;2024-01-10T08:37:50;103142.44;;;-5.43;100.00
71791;BME280;59638;52.126;5.434;2024-01-10T08:40:16;103145.16;;;-5.32;100.00
71791;BME280;59638;52.126;5.434;2024-01-10T08:42:43;103142.69;;;-5.25;100.00
71791;BME280;59638;52.126;5.434;2024-01-10T08:45:10;103141.13;;;-5.13;100.00
71791;BME280;59638;52.126;5.434;2024-01-10T08:47:37;103151.50;;;-5.07;100.00
71791;BME280;59638;52.126;5.434;2024-01-10T08:50:05;103151.59;;;-4.98;100.00
71791;BME280;59638;52.126;5.434;2024-01-10T08:52:35;103150.88;;;-4.86;100.00
71791;BME280;59638;52.126;5.434;2024-01-10T08:55:05;103134.63;;;-4.78;99.88
71791;BME280;59638;52.126;5.434;2024-01-10T08:57:35;103127.84;;;-4.70;99.40
71791;BME280;59638;52.126;5.434;2024-01-10T09:00:03;103127.03;;;-4.64;98.73
71791;BME280;59638;52.126;5.434;2024-01-10T09:02:32;103132.28;;;-4.56;98.55
71791;BME280;59638;52.126;5.434;2024-01-10T09:04:59;103136.78;;;-4.34;97.35
71791;BME280;59638;52.126;5.434;2024-01-10T09:07:26;103147.44;;;-3.96;96.10
71791;BME280;59638;52.126;5.434;2024-01-10T09:09:53;103146.06;;;-3.37;92.86
71791;BME280;59638;52.126;5.434;2024-01-10T09:12:20;103135.72;;;-3.37;90.39
71791;BME280;59638;52.126;5.434;2024-01-10T09:14:46;103139.97;;;-3.50;90.77
71791;BME280;59638;52.126;5.434;2024-01-10T09:17:13;103139.16;;;-3.38;89.38
71791;BME280;59638;52.126;5.434;2024-01-10T09:19:39;103145.19;;;-3.41;88.82
71791;BME280;59638;52.126;5.434;2024-01-10T09:22:06;103144.47;;;-3.17;86.42
71791;BME280;59638;52.126;5.434;2024-01-10T09:24:33;103138.53;;;-2.84;85.62
71791;BME280;59638;52.126;5.434;2024-01-10T09:27:01;103138.53;;;-2.79;85.45
71791;BME280;59638;52.126;5.434;2024-01-10T09:29:28;103127.34;;;-2.75;85.31
71791;BME280;59638;52.126;5.434;2024-01-10T09:31:54;103121.34;;;-2.53;84.97
71791;BME280;59638;52.126;5.434;2024-01-10T09:34:21;103127.38;;;-2.66;83.99
71791;BME280;59638;52.126;5.434;2024-01-10T09:36:48;103127.34;;;-2.75;83.69
71791;BME280;59638;52.126;5.434;2024-01-10T09:39:14;103134.25;;;-2.65;83.07
71791;BME280;59638;52.126;5.434;2024-01-10T09:41:47;103123.97;;;-2.16;79.75
71791;BME280;59638;52.126;5.434;2024-01-10T09:44:19;103121.16;;;-1.21;78.88
71791;BME280;59638;52.126;5.434;2024-01-10T09:46:51;103121.78;;;-0.73;74.62
71791;BME280;59638;52.126;5.434;2024-01-10T09:49:19;103122.53;;;-0.56;72.37
71791;BME280;59638;52.126;5.434;2024-01-10T09:51:49;103124.97;;;-0.32;70.97
71791;BME280;59638;52.126;5.434;2024-01-10T09:54:16;103118.81;;;-0.21;68.52
71791;BME280;59638;52.126;5.434;2024-01-10T09:56:42;103116.06;;;-0.03;67.55
71791;BME280;59638;52.126;5.434;2024-01-10T09:59:10;103126.06;;;0.37;67.13
71791;BME280;59638;52.126;5.434;2024-01-10T10:01:38;103118.91;;;0.57;65.91
71791;BME280;59638;52.126;5.434;2024-01-10T10:04:09;103111.34;;;1.05;66.10
71791;BME280;59638;52.126;5.434;2024-01-10T10:06:37;103109.44;;;1.19;65.60
71791;BME280;59638;52.126;5.434;2024-01-10T10:09:04;103114.59;;;1.22;65.26
71791;BME280;59638;52.126;5.434;2024-01-10T10:11:33;103105.50;;;0.89;65.01
71791;BME280;59638;52.126;5.434;2024-01-10T10:14:18;103107.81;;;1.11;65.39
71791;BME280;59638;52.126;5.434;2024-01-10T10:16:45;103108.28;;;1.40;64.54
71791;BME280;59638;52.126;5.434;2024-01-10T10:19:12;103118.59;;;1.45;63.12
71791;BME280;59638;52.126;5.434;2024-01-10T10:21:50;103114.94;;;1.56;61.86
71791;BME280;59638;52.126;5.434;2024-01-10T10:24:17;103123.22;;;1.24;61.50
71791;BME280;59638;52.126;5.434;2024-01-10T10:26:47;103117.91;;;0.69;60.86
71791;BME280;59638;52.126;5.434;2024-01-10T10:29:17;103113.28;;;0.91;61.86
71791;BME280;59638;52.126;5.434;2024-01-10T10:31:47;103116.91;;;1.42;60.36
71791;BME280;59638;52.126;5.434;2024-01-10T10:34:20;103096.84;;;1.49;58.66
71791;BME280;59638;52.126;5.434;2024-01-10T10:36:48;103099.59;;;1.94;57.63
71791;BME280;59638;52.126;5.434;2024-01-10T10:39:17;103092.63;;;2.82;57.81
71791;BME280;59638;52.126;5.434;2024-01-10T10:41:47;103098.09;;;3.10;56.24
71791;BME280;59638;52.126;5.434;2024-01-10T10:44:15;103095.50;;;3.47;55.88
71791;BME280;59638;52.126;5.434;2024-01-10T10:46:49;103090.03;;;3.21;53.78
71791;BME280;59638;52.126;5.434;2024-01-10T10:49:34;103092.28;;;3.36;53.62
71791;BME280;59638;52.126;5.434;2024-01-10T10:52:01;103092.88;;;3.10;51.97
71791;BME280;59638;52.126;5.434;2024-01-10T10:54:29;103082.19;;;3.22;52.68
71791;BME280;59638;52.126;5.434;2024-01-10T10:56:58;103094.47;;;3.54;51.74
71791;BME280;59638;52.126;5.434;2024-01-10T10:59:26;103092.16;;;4.12;50.19
71791;BME280;59638;52.126;5.434;2024-01-10T11:01:53;103083.56;;;4.07;49.91
71791;BME280;59638;52.126;5.434;2024-01-10T11:04:21;103085.50;;;4.92;49.59
71791;BME280;59638;52.126;5.434;2024-01-10T11:06:47;103080.25;;;5.75;49.92
71791;BME280;59638;52.126;5.434;2024-01-10T11:09:17;103089.13;;;5.44;46.90
71791;BME280;59638;52.126;5.434;2024-01-10T11:11:56;103092.63;;;5.16;48.21
71791;BME280;59638;52.126;5.434;2024-01-10T11:14:43;103091.53;;;5.24;47.78
71791;BME280;59638;52.126;5.434;2024-01-10T11:17:26;103093.66;;;5.65;46.18
71791;BME280;59638;52.126;5.434;2024-01-10T11:20:14;103091.53;;;5.24;45.76
71791;BME280;59638;52.126;5.434;2024-01-10T11:25:30;103080.19;;;5.23;46.39
71791;BME280;59638;52.126;5.434;2024-01-10T11:28:02;103084.28;;;4.45;46.72
71791;BME280;59638;52.126;5.434;2024-01-10T11:30:37;103084.88;;;3.89;47.74
71791;BME280;59638;52.126;5.434;2024-01-10T11:33:30;103084.06;;;3.16;50.20
71791;BME280;59638;52.126;5.434;2024-01-10T11:36:12;103086.44;;;2.88;50.40
71791;BME280;59638;52.126;5.434;2024-01-10T11:38:59;103087.25;;;2.05;49.86
71791;BME280;59638;52.126;5.434;2024-01-10T11:41:35;103077.97;;;1.88;50.95
71791;BME280;59638;52.126;5.434;2024-01-10T11:46:35;103072.28;;;2.14;51.25
71791;BME280;59638;52.126;5.434;2024-01-10T11:49:09;103072.50;;;1.53;51.93
71791;BME280;59638;52.126;5.434;2024-01-10T11:51:36;103075.72;;;1.67;51.64
71791;BME280;59638;52.126;5.434;2024-01-10T11:54:03;103078.00;;;1.87;51.38
71791;BME280;59638;52.126;5.434;2024-01-10T11:56:42;103075.03;;;2.07;51.35
71791;BME280;59638;52.126;5.434;2024-01-10T11:59:10;103071.47;;;2.97;50.57
71791;BME280;59638;52.126;5.434;2024-01-10T12:01:38;103069.44;;;3.46;48.99
71791;BME280;59638;52.126;5.434;2024-01-10T12:04:06;103069.22;;;3.89;46.94
71791;BME280;59638;52.126;5.434;2024-01-10T12:06:45;103058.09;;;4.76;45.75
71791;BME280;59638;52.126;5.434;2024-01-10T12:09:13;103045.88;;;5.84;43.97
71791;BME280;59638;52.126;5.434;2024-01-10T12:11:40;103034.00;;;6.23;43.07
71791;BME280;59638;52.126;5.434;2024-01-10T12:14:10;103040.84;;;6.74;42.02
71791;BME280;59638;52.126;5.434;2024-01-10T12:16:37;103035.59;;;6.51;41.91
71791;BME280;59638;52.126;5.434;2024-01-10T12:19:03;103032.56;;;6.62;42.48
71791;BME280;59638;52.126;5.434;2024-01-10T12:21:30;103035.84;;;5.96;41.29
71791;BME280;59638;52.126;5.434;2024-01-10T12:23:56;103032.22;;;6.24;41.91
71791;BME280;59638;52.126;5.434;2024-01-10T12:26:23;103030.69;;;5.68;41.17
71791;BME280;59638;52.126;5.434;2024-01-10T12:28:59;103029.25;;;7.02;41.10
71791;BME280;59638;52.126;5.434;2024-01-10T12:31:30;103024.50;;;7.54;39.46
71791;BME280;59638;52.126;5.434;2024-01-10T12:34:00;103023.84;;;6.14;40.24
71791;BME280;59638;52.126;5.434;2024-01-10T12:36:29;103027.88;;;5.73;41.03
71791;BME280;59638;52.126;5.434;2024-01-10T12:38:56;103026.81;;;5.79;41.28
71791;BME280;59638;52.126;5.434;2024-01-10T12:41:22;103032.97;;;6.51;41.47
71791;BME280;59638;52.126;5.434;2024-01-10T12:43:52;103014.56;;;7.40;41.00
71791;BME280;59638;52.126;5.434;2024-01-10T12:46:19;103016.41;;;7.79;40.02
71791;BME280;59638;52.126;5.434;2024-01-10T12:48:58;103015.06;;;8.09;39.75
71791;BME280;59638;52.126;5.434;2024-01-10T12:51:24;103013.66;;;7.19;39.23
71791;BME280;59638;52.126;5.434;2024-01-10T12:53:51;103011.13;;;6.50;40.46
71791;BME280;59638;52.126;5.434;2024-01-10T12:56:19;103012.72;;;6.31;40.55
71791;BME280;59638;52.126;5.434;2024-01-10T12:58:45;103019.06;;;6.25;41.09